sensor_id;sensor_type;location;lat;lon;timestamp;pressure;altitude;pressure_sealevel;temperature;humidity
56876;BME280;42622;49.972;8.452;2022-10-29T00:00:52;101277.19;;;12.14;100.00
56876;BME280;42622;49.972;8.452;2022-10-29T00:03:19;101274.25;;;12.18;100.00
56876;BME280;42622;49.972;8.452;2022-10-29T00:05:54;101281.09;;;12.23;100.00
56876;BME280;42622;49.972;8.452;2022-10-29T00:08:20;101274.84;;;12.24;100.00
56876;BME280;42622;49.972;8.452;2022-10-29T00:10:46;101289.78;;;12.25;100.00
56876;BME280;42622;49.972;8.452;2022-10-29T00:13:11;101288.16;;;12.22;100.00
56876;BME280;42622;49.972;8.452;2022-10-29T00:15:39;101294.25;;;12.24;100.00
56876;BME280;42622;49.972;8.452;2022-10-29T00:18:05;101298.59;;;12.25;100.00
56876;BME280;42622;49.972;8.452;2022-10-29T00:20:30;101296.13;;;12.22;100.00
56876;BME280;42622;49.972;8.452;2022-10-29T00:22:56;101292.91;;;12.17;100.00
56876;BME280;42622;49.972;8.452;2022-10-29T00:25:22;101286.84;;;12.15;100.00
56876;BME280;42622;49.972;8.452;2022-10-29T00:27:47;101294.97;;;12.12;100.00
56876;BME280;42622;49.972;8.452;2022-10-29T00:30:13;101283.63;;;12.10;100.00
56876;BME280;42622;49.972;8.452;2022-10-29T00:32:39;101278.50;;;12.07;100.00
56876;BME280;42622;49.972;8.452;2022-10-29T00:35:05;101284.75;;;12.06;100.00
56876;BME280;42622;49.972;8.452;2022-10-29T00:37:30;101292.78;;;12.04;100.00
56876;BME280;42622;49.972;8.452;2022-10-29T00:39:56;101283.97;;;12.04;100.00
56876;BME280;42622;49.972;8.452;2022-10-29T00:42:22;101290.25;;;12.03;100.00
56876;BME280;42622;49.972;8.452;2022-10-29T00:44:47;101291.25;;;12.00;100.00
56876;BME280;42622;49.972;8.452;2022-10-29T00:50:08;101278.47;;;11.92;100.00
56876;BME280;42622;49.972;8.452;2022-10-29T00:52:44;101277.91;;;11.87;100.00
56876;BME280;42622;49.972;8.452;2022-10-29T00:55:14;101286.88;;;11.85;100.00
56876;BME280;42622;49.972;8.452;2022-10-29T00:57:48;101285.41;;;11.79;100.00
56876;BME280;42622;49.972;8.452;2022-10-29T01:00:17;101290.31;;;11.71;100.00
56876;BME280;42622;49.972;8.452;2022-10-29T01:02:44;101294.09;;;11.67;100.00
56876;BME280;42622;49.972;8.452;2022-10-29T01:05:19;101305.81;;;11.63;100.00
56876;BME280;42622;49.972;8.452;2022-10-29T01:07:46;101298.91;;;11.60;100.00
56876;BME280;42622;49.972;8.452;2022-10-29T01:10:15;101300.03;;;11.56;100.00
56876;BME280;42622;49.972;8.452;2022-10-29T01:22:15;101283.56;;;11.35;100.00
56876;BME280;42622;49.972;8.452;2022-10-29T01:28:03;101277.59;;;11.32;100.00
56876;BME280;42622;49.972;8.452;2022-10-29T01:31:16;101269.06;;;11.27;100.00
56876;BME280;42622;49.972;8.452;2022-10-29T01:39:34;101270.84;;;11.26;100.00
56876;BME280;42622;49.972;8.452;2022-10-29T01:42:30;101274.00;;;11.33;100.00
56876;BME280;42622;49.972;8.452;2022-10-29T01:45:11;101279.97;;;11.36;100.00
56876;BME280;42622;49.972;8.452;2022-10-29T01:47:56;101278.84;;;11.40;100.00
56876;BME280;42622;49.972;8.452;2022-10-29T01:50:25;101270.00;;;11.41;100.00
56876;BME280;42622;49.972;8.452;2022-10-29T01:52:53;101269.22;;;11.39;100.00
56876;BME280;42622;49.972;8.452;2022-10-29T01:55:28;101279.03;;;11.37;100.00
56876;BME280;42622;49.972;8.452;2022-10-29T01:57:55;101264.09;;;11.36;100.00
56876;BME280;42622;49.972;8.452;2022-10-29T02:00:21;101258.97;;;11.33;100.00
56876;BME280;42622;49.972;8.452;2022-10-29T02:03:32;101263.41;;;11.33;100.00
56876;BME280;42622;49.972;8.452;2022-10-29T02:09:18;101264.44;;;11.30;100.00
56876;BME280;42622;49.972;8.452;2022-10-29T02:12:25;101263.84;;;11.25;100.00
56876;BME280;42622;49.972;8.452;2022-10-29T02:15:08;101271.13;;;11.21;100.00
56876;BME280;42622;49.972;8.452;2022-10-29T02:17:36;101275.75;;;11.18;100.00
56876;BME280;42622;49.972;8.452;2022-10-29T02:20:08;101268.06;;;11.13;100.00
56876;BME280;42622;49.972;8.452;2022-10-29T02:22:34;101258.56;;;11.09;100.00
56876;BME280;42622;49.972;8.452;2022-10-29T02:25:02;101264.97;;;11.05;100.00
56876;BME280;42622;49.972;8.452;2022-10-29T02:27:28;101267.91;;;11.00;100.00
56876;BME280;42622;49.972;8.452;2022-10-29T02:29:54;101263.63;;;10.98;100.00
56876;BME280;42622;49.972;8.452;2022-10-29T02:32:19;101266.53;;;10.93;100.00
56876;BME280;42622;49.972;8.452;2022-10-29T02:34:45;101263.28;;;10.88;100.00
56876;BME280;42622;49.972;8.452;2022-10-29T02:37:11;101267.03;;;10.84;100.00
56876;BME280;42622;49.972;8.452;2022-10-29T02:39:36;101260.91;;;10.84;100.00
56876;BME280;42622;49.972;8.452;2022-10-29T02:42:02;101261.91;;;10.81;100.00
56876;BME280;42622;49.972;8.452;2022-10-29T02:44:27;101267.41;;;10.78;100.00
56876;BME280;42622;49.972;8.452;2022-10-29T02:46:53;101274.38;;;10.79;100.00
56876;BME280;42622;49.972;8.452;2022-10-29T02:49:18;101270.78;;;10.80;100.00
56876;BME280;42622;49.972;8.452;2022-10-29T02:51:44;101266.19;;;10.84;100.00
56876;BME280;42622;49.972;8.452;2022-10-29T02:54:10;101263.63;;;10.82;100.00
56876;BME280;42622;49.972;8.452;2022-10-29T02:56:41;101261.84;;;10.83;100.00
56876;BME280;42622;49.972;8.452;2022-10-29T02:59:07;101252.28;;;10.80;100.00
56876;BME280;42622;49.972;8.452;2022-10-29T03:01:32;101258.19;;;10.85;100.00
56876;BME280;42622;49.972;8.452;2022-10-29T03:03:58;101266.19;;;10.84;100.00
56876;BME280;42622;49.972;8.452;2022-10-29T03:06:23;101270.47;;;10.86;100.00
56876;BME280;42622;49.972;8.452;2022-10-29T03:08:49;101274.06;;;10.85;100.00
56876;BME280;42622;49.972;8.452;2022-10-29T03:11:15;101268.06;;;10.82;100.00
56876;BME280;42622;49.972;8.452;2022-10-29T03:13:40;101260.38;;;10.77;100.00
56876;BME280;42622;49.972;8.452;2022-10-29T03:16:06;101257.16;;;10.72;100.00
56876;BME280;42622;49.972;8.452;2022-10-29T03:18:32;101258.31;;;10.66;100.00
56876;BME280;42622;49.972;8.452;2022-10-29T03:20:57;101259.38;;;10.64;100.00
56876;BME280;42622;49.972;8.452;2022-10-29T03:23:23;101257.81;;;10.60;100.00
56876;BME280;42622;49.972;8.452;2022-10-29T03:25:53;101258.16;;;10.53;100.00
56876;BME280;42622;49.972;8.452;2022-10-29T03:28:21;101266.16;;;10.52;100.00
56876;BME280;42622;49.972;8.452;2022-10-29T03:30:47;101264.56;;;10.49;100.00
56876;BME280;42622;49.972;8.452;2022-10-29T03:33:13;101282.13;;;10.50;100.00
56876;BME280;42622;49.972;8.452;2022-10-29T03:35:39;101273.50;;;10.47;100.00
56876;BME280;42622;49.972;8.452;2022-10-29T03:38:05;101276.38;;;10.42;100.00
56876;BME280;42622;49.972;8.452;2022-10-29T03:40:31;101273.97;;;10.38;100.00
56876;BME280;42622;49.972;8.452;2022-10-29T03:42:57;101269.00;;;10.32;100.00
56876;BME280;42622;49.972;8.452;2022-10-29T03:45:22;101268.16;;;10.31;100.00
56876;BME280;42622;49.972;8.452;2022-10-29T03:47:49;101264.06;;;10.25;100.00
56876;BME280;42622;49.972;8.452;2022-10-29T03:50:16;101267.59;;;10.24;100.00
56876;BME280;42622;49.972;8.452;2022-10-29T03:52:41;101266.91;;;10.21;100.00
56876;BME280;42622;49.972;8.452;2022-10-29T03:55:07;101260.06;;;10.17;100.00
56876;BME280;42622;49.972;8.452;2022-10-29T03:57:33;101252.25;;;10.15;100.00
56876;BME280;42622;49.972;8.452;2022-10-29T03:59:59;101266.47;;;10.13;100.00
56876;BME280;42622;49.972;8.452;2022-10-29T04:02:29;101262.97;;;10.12;100.00
56876;BME280;42622;49.972;8.452;2022-10-29T04:04:55;101265.72;;;10.11;100.00
56876;BME280;42622;49.972;8.452;2022-10-29T04:07:20;101271.00;;;10.11;100.00
56876;BME280;42622;49.972;8.452;2022-10-29T04:09:46;101271.06;;;10.09;100.00
56876;BME280;42622;49.972;8.452;2022-10-29T04:12:11;101264.91;;;10.09;100.00
56876;BME280;42622;49.972;8.452;2022-10-29T04:14:40;101266.72;;;10.08;100.00
56876;BME280;42622;49.972;8.452;2022-10-29T04:17:10;101279.13;;;10.06;100.00
56876;BME280;42622;49.972;8.452;2022-10-29T04:19:36;101276.44;;;10.08;100.00
56876;BME280;42622;49.972;8.452;2022-10-29T04:22:01;101269.41;;;10.06;100.00
56876;BME280;42622;49.972;8.452;2022-10-29T04:24:27;101256.84;;;10.12;100.00
56876;BME280;42622;49.972;8.452;2022-10-29T04:26:52;101256.69;;;10.15;100.00
56876;BME280;42622;49.972;8.452;2022-10-29T04:29:18;101257.38;;;10.18;100.00
56876;BME280;42622;49.972;8.452;2022-10-29T04:31:44;101255.41;;;10.22;100.00
56876;BME280;42622;49.972;8.452;2022-10-29T04:34:09;101251.84;;;10.23;100.00
56876;BME280;42622;49.972;8.452;2022-10-29T04:36:35;101235.03;;;10.24;100.00
56876;BME280;42622;49.972;8.452;2022-10-29T04:39:00;101235.53;;;10.32;100.00
56876;BME280;42622;49.972;8.452;2022-10-29T04:41:26;101245.06;;;10.35;100.00
56876;BME280;42622;49.972;8.452;2022-10-29T04:43:51;101242.25;;;10.38;100.00
56876;BME280;42622;49.972;8.452;2022-10-29T04:46:17;101244.66;;;10.42;100.00
56876;BME280;42622;49.972;8.452;2022-10-29T04:48:43;101237.34;;;10.47;100.00
56876;BME280;42622;49.972;8.452;2022-10-29T04:51:22;101233.59;;;10.51;100.00
56876;BME280;42622;49.972;8.452;2022-10-29T04:53:48;101247.41;;;10.57;100.00
56876;BME280;42622;49.972;8.452;2022-10-29T04:56:13;101248.97;;;10.61;100.00
56876;BME280;42622;49.972;8.452;2022-10-29T04:58:39;101252.19;;;10.66;100.00
56876;BME280;42622;49.972;8.452;2022-10-29T05:01:05;101246.91;;;10.66;100.00
56876;BME280;42622;49.972;8.452;2022-10-29T05:03:31;101240.66;;;10.67;100.00
56876;BME280;42622;49.972;8.452;2022-10-29T05:05:57;101250.16;;;10.71;100.00
56876;BME280;42622;49.972;8.452;2022-10-29T05:08:23;101248.25;;;10.73;100.00
56876;BME280;42622;49.972;8.452;2022-10-29T05:10:49;101243.66;;;10.76;100.00
56876;BME280;42622;49.972;8.452;2022-10-29T05:13:15;101242.53;;;10.81;100.00
56876;BME280;42622;49.972;8.452;2022-10-29T05:15:41;101234.44;;;10.84;100.00
56876;BME280;42622;49.972;8.452;2022-10-29T05:18:08;101241.53;;;10.83;100.00
56876;BME280;42622;49.972;8.452;2022-10-29T05:20:35;101237.88;;;10.86;100.00
56876;BME280;42622;49.972;8.452;2022-10-29T05:23:04;101239.66;;;10.85;100.00
56876;BME280;42622;49.972;8.452;2022-10-29T05:25:32;101238.72;;;10.86;100.00
56876;BME280;42622;49.972;8.452;2022-10-29T05:28:08;101248.34;;;10.87;100.00
56876;BME280;42622;49.972;8.452;2022-10-29T05:30:35;101240.41;;;10.87;100.00
56876;BME280;42622;49.972;8.452;2022-10-29T05:33:11;101243.06;;;10.87;100.00
56876;BME280;42622;49.972;8.452;2022-10-29T05:35:38;101239.47;;;10.88;100.00
56876;BME280;42622;49.972;8.452;2022-10-29T05:38:04;101235.06;;;10.89;100.00
56876;BME280;42622;49.972;8.452;2022-10-29T05:40:30;101239.41;;;10.90;100.00
56876;BME280;42622;49.972;8.452;2022-10-29T05:42:57;101243.00;;;10.89;100.00
56876;BME280;42622;49.972;8.452;2022-10-29T05:45:22;101239.47;;;10.88;100.00
56876;BME280;42622;49.972;8.452;2022-10-29T05:47:59;101238.63;;;10.88;100.00
56876;BME280;42622;49.972;8.452;2022-10-29T05:50:27;101244.75;;;10.88;100.00
56876;BME280;42622;49.972;8.452;2022-10-29T05:53:02;101240.25;;;10.90;100.00
56876;BME280;42622;49.972;8.452;2022-10-29T05:55:30;101233.25;;;10.89;100.00
56876;BME280;42622;49.972;8.452;2022-10-29T05:58:03;101231.38;;;10.91;100.00
56876;BME280;42622;49.972;8.452;2022-10-29T06:00:32;101238.38;;;10.92;100.00
56876;BME280;42622;49.972;8.452;2022-10-29T06:02:58;101231.38;;;10.91;100.00
56876;BME280;42622;49.972;8.452;2022-10-29T06:05:23;101229.59;;;10.92;100.00
56876;BME280;42622;49.972;8.452;2022-10-29T06:07:57;101241.72;;;10.96;100.00
56876;BME280;42622;49.972;8.452;2022-10-29T06:10:26;101237.25;;;10.96;100.00
56876;BME280;42622;49.972;8.452;2022-10-29T06:12:52;101230.19;;;10.97;100.00
56876;BME280;42622;49.972;8.452;2022-10-29T06:15:18;101229.16;;;10.99;100.00
56876;BME280;42622;49.972;8.452;2022-10-29T06:17:46;101227.19;;;11.03;100.00
56876;BME280;42622;49.972;8.452;2022-10-29T06:20:15;101243.13;;;11.01;100.00
56876;BME280;42622;49.972;8.452;2022-10-29T06:22:41;101244.88;;;11.03;100.00
56876;BME280;42622;49.972;8.452;2022-10-29T06:25:07;101248.25;;;11.05;100.00
56876;BME280;42622;49.972;8.452;2022-10-29T06:27:35;101249.09;;;11.05;100.00
56876;BME280;42622;49.972;8.452;2022-10-29T06:30:01;101240.25;;;11.06;100.00
56876;BME280;42622;49.972;8.452;2022-10-29T06:32:27;101254.22;;;11.08;100.00
56876;BME280;42622;49.972;8.452;2022-10-29T06:34:53;101248.09;;;11.08;100.00
56876;BME280;42622;49.972;8.452;2022-10-29T06:37:18;101251.31;;;11.13;100.00
56876;BME280;42622;49.972;8.452;2022-10-29T06:39:44;101252.88;;;11.17;100.00
56876;BME280;42622;49.972;8.452;2022-10-29T06:42:09;101254.41;;;11.21;100.00
56876;BME280;42622;49.972;8.452;2022-10-29T06:44:35;101252.50;;;11.23;100.00
56876;BME280;42622;49.972;8.452;2022-10-29T06:47:00;101254.97;;;11.26;100.00
56876;BME280;42622;49.972;8.452;2022-10-29T06:49:26;101258.28;;;11.30;100.00
56876;BME280;42622;49.972;8.452;2022-10-29T06:51:51;101263.34;;;11.34;100.00
56876;BME280;42622;49.972;8.452;2022-10-29T06:54:17;101262.22;;;11.38;100.00
56876;BME280;42622;49.972;8.452;2022-10-29T06:56:43;101254.84;;;11.43;100.00
56876;BME280;42622;49.972;8.452;2022-10-29T06:59:08;101250.16;;;11.48;100.00
56876;BME280;42622;49.972;8.452;2022-10-29T07:01:34;101259.44;;;11.56;100.00
56876;BME280;42622;49.972;8.452;2022-10-29T07:03:59;101261.03;;;11.58;100.00
56876;BME280;42622;49.972;8.452;2022-10-29T07:06:26;101265.13;;;11.64;100.00
56876;BME280;42622;49.972;8.452;2022-10-29T07:08:52;101259.75;;;11.65;100.00
56876;BME280;42622;49.972;8.452;2022-10-29T07:11:17;101264.00;;;11.68;100.00
56876;BME280;42622;49.972;8.452;2022-10-29T07:13:43;101265.53;;;11.72;100.00
56876;BME280;42622;49.972;8.452;2022-10-29T07:16:09;101266.31;;;11.74;100.00
56876;BME280;42622;49.972;8.452;2022-10-29T07:18:34;101264.31;;;11.78;100.00
56876;BME280;42622;49.972;8.452;2022-10-29T07:21:03;101259.69;;;11.81;100.00
56876;BME280;42622;49.972;8.452;2022-10-29T07:23:30;101268.25;;;11.86;100.00
56876;BME280;42622;49.972;8.452;2022-10-29T07:25:55;101260.88;;;11.91;100.00
56876;BME280;42622;49.972;8.452;2022-10-29T07:28:22;101271.09;;;11.98;100.00
56876;BME280;42622;49.972;8.452;2022-10-29T07:30:51;101274.34;;;12.03;100.00
56876;BME280;42622;49.972;8.452;2022-10-29T07:33:18;101253.69;;;12.08;100.00
56876;BME280;42622;49.972;8.452;2022-10-29T07:35:44;101261.47;;;12.11;100.00
56876;BME280;42622;49.972;8.452;2022-10-29T07:38:11;101255.97;;;12.14;100.00
56876;BME280;42622;49.972;8.452;2022-10-29T07:40:47;101269.59;;;12.22;100.00
56876;BME280;42622;49.972;8.452;2022-10-29T07:43:14;101264.91;;;12.27;100.00
56876;BME280;42622;49.972;8.452;2022-10-29T07:45:41;101273.31;;;12.34;100.00
56876;BME280;42622;49.972;8.452;2022-10-29T07:48:08;101264.88;;;12.41;100.00
56876;BME280;42622;49.972;8.452;2022-10-29T07:50:38;101266.94;;;12.51;100.00
56876;BME280;42622;49.972;8.452;2022-10-29T07:53:06;101256.06;;;12.55;100.00
56876;BME280;42622;49.972;8.452;2022-10-29T07:55:32;101261.84;;;12.62;100.00
56876;BME280;42622;49.972;8.452;2022-10-29T07:58:04;101274.63;;;12.70;100.00
56876;BME280;42622;49.972;8.452;2022-10-29T08:00:37;101278.66;;;12.75;100.00
56876;BME280;42622;49.972;8.452;2022-10-29T08:03:04;101282.63;;;12.82;100.00
56876;BME280;42622;49.972;8.452;2022-10-29T08:05:31;101283.94;;;12.89;100.00
56876;BME280;42622;49.972;8.452;2022-10-29T08:07:58;101275.81;;;12.92;100.00
56876;BME280;42622;49.972;8.452;2022-10-29T08:10:25;101283.50;;;12.97;100.00
56876;BME280;42622;49.972;8.452;2022-10-29T08:12:56;101276.19;;;13.01;100.00
56876;BME280;42622;49.972;8.452;2022-10-29T08:15:23;101287.34;;;13.06;100.00
56876;BME280;42622;49.972;8.452;2022-10-29T08:17:49;101272.91;;;13.10;100.00
56876;BME280;42622;49.972;8.452;2022-10-29T08:20:18;101274.34;;;13.15;100.00
56876;BME280;42622;49.972;8.452;2022-10-29T08:22:44;101270.41;;;13.21;100.00
56876;BME280;42622;49.972;8.452;2022-10-29T08:25:11;101269.09;;;13.28;100.00
56876;BME280;42622;49.972;8.452;2022-10-29T08:27:37;101273.25;;;13.32;100.00
56876;BME280;42622;49.972;8.452;2022-10-29T08:30:04;101276.47;;;13.37;100.00
56876;BME280;42622;49.972;8.452;2022-10-29T08:32:30;101274.34;;;13.43;100.00
56876;BME280;42622;49.972;8.452;2022-10-29T08:34:56;101274.69;;;13.51;100.00
56876;BME280;42622;49.972;8.452;2022-10-29T08:37:21;101276.72;;;13.60;100.00
56876;BME280;42622;49.972;8.452;2022-10-29T08:39:47;101272.69;;;13.67;100.00
56876;BME280;42622;49.972;8.452;2022-10-29T08:42:27;101271.69;;;13.82;100.00
56876;BME280;42622;49.972;8.452;2022-10-29T08:45:33;101279.78;;;13.94;100.00
56876;BME280;42622;49.972;8.452;2022-10-29T08:51:12;101284.22;;;14.06;100.00
56876;BME280;42622;49.972;8.452;2022-10-29T08:53:49;101281.06;;;14.14;100.00
56876;BME280;42622;49.972;8.452;2022-10-29T08:56:38;101275.44;;;14.18;100.00
56876;BME280;42622;49.972;8.452;2022-10-29T08:59:14;101275.00;;;14.24;100.00
56876;BME280;42622;49.972;8.452;2022-10-29T09:01:40;101273.91;;;14.27;100.00
56876;BME280;42622;49.972;8.452;2022-10-29T09:04:35;101276.28;;;14.31;100.00
56876;BME280;42622;49.972;8.452;2022-10-29T09:10:37;101280.00;;;14.42;100.00
56876;BME280;42622;49.972;8.452;2022-10-29T09:13:24;101275.75;;;14.52;100.00
56876;BME280;42622;49.972;8.452;2022-10-29T09:16:31;101276.28;;;14.57;100.00
56876;BME280;42622;49.972;8.452;2022-10-29T09:19:32;101267.75;;;14.65;100.00
56876;BME280;42622;49.972;8.452;2022-10-29T09:22:22;101280.84;;;14.68;100.00
56876;BME280;42622;49.972;8.452;2022-10-29T09:25:22;101265.72;;;14.68;100.00
56876;BME280;42622;49.972;8.452;2022-10-29T09:28:24;101270.59;;;14.74;100.00
56876;BME280;42622;49.972;8.452;2022-10-29T09:34:11;101270.38;;;14.77;100.00
56876;BME280;42622;49.972;8.452;2022-10-29T09:36:39;101266.75;;;14.78;100.00
56876;BME280;42622;49.972;8.452;2022-10-29T09:39:32;101268.44;;;14.79;100.00
56876;BME280;42622;49.972;8.452;2022-10-29T09:42:01;101264.59;;;14.83;100.00
56876;BME280;42622;49.972;8.452;2022-10-29T09:44:46;101262.06;;;14.82;100.00
56876;BME280;42622;49.972;8.452;2022-10-29T09:53:13;101256.94;;;14.92;100.00
56876;BME280;42622;49.972;8.452;2022-10-29T09:55:47;101254.66;;;14.98;100.00
56876;BME280;42622;49.972;8.452;2022-10-29T09:58:26;101261.88;;;15.09;100.00
56876;BME280;42622;49.972;8.452;2022-10-29T10:00:54;101258.75;;;15.15;100.00
56876;BME280;42622;49.972;8.452;2022-10-29T10:03:40;101261.22;;;15.29;100.00
56876;BME280;42622;49.972;8.452;2022-10-29T10:06:13;101253.31;;;15.41;100.00
56876;BME280;42622;49.972;8.452;2022-10-29T10:09:01;101261.34;;;15.52;100.00
56876;BME280;42622;49.972;8.452;2022-10-29T10:11:39;101248.28;;;15.60;100.00
56876;BME280;42622;49.972;8.452;2022-10-29T10:14:24;101260.72;;;15.72;100.00
56876;BME280;42622;49.972;8.452;2022-10-29T10:17:00;101256.13;;;15.86;100.00
56876;BME280;42622;49.972;8.452;2022-10-29T10:19:30;101243.56;;;15.99;100.00
56876;BME280;42622;49.972;8.452;2022-10-29T10:22:20;101242.38;;;16.25;100.00
56876;BME280;42622;49.972;8.452;2022-10-29T10:24:45;101237.16;;;16.58;100.00
56876;BME280;42622;49.972;8.452;2022-10-29T10:32:30;101230.72;;;17.47;100.00
56876;BME280;42622;49.972;8.452;2022-10-29T10:34:56;101234.06;;;17.60;100.00
56876;BME280;42622;49.972;8.452;2022-10-29T10:37:22;101231.84;;;17.65;100.00
56876;BME280;42622;49.972;8.452;2022-10-29T10:40:00;101227.97;;;17.58;100.00
56876;BME280;42622;49.972;8.452;2022-10-29T10:42:46;101224.59;;;17.56;100.00
56876;BME280;42622;49.972;8.452;2022-10-29T10:45:15;101220.34;;;17.54;100.00
56876;BME280;42622;49.972;8.452;2022-10-29T10:47:54;101229.47;;;17.51;100.00
56876;BME280;42622;49.972;8.452;2022-10-29T10:50:28;101218.78;;;17.51;100.00
56876;BME280;42622;49.972;8.452;2022-10-29T10:52:58;101221.94;;;17.56;100.00
56876;BME280;42622;49.972;8.452;2022-10-29T10:55:37;101211.25;;;17.56;100.00
56876;BME280;42622;49.972;8.452;2022-10-29T10:58:24;101209.53;;;17.55;100.00
56876;BME280;42622;49.972;8.452;2022-10-29T11:01:36;101213.19;;;17.54;100.00
56876;BME280;42622;49.972;8.452;2022-10-29T11:04:26;101200.06;;;17.51;100.00
56876;BME280;42622;49.972;8.452;2022-10-29T11:07:01;101199.09;;;17.52;100.00
56876;BME280;42622;49.972;8.452;2022-10-29T11:09:37;101190.03;;;17.43;100.00
56876;BME280;42622;49.972;8.452;2022-10-29T11:12:45;101190.03;;;17.43;100.00
56876;BME280;42622;49.972;8.452;2022-10-29T11:15:53;101186.00;;;17.49;100.00
56876;BME280;42622;49.972;8.452;2022-10-29T11:18:52;101188.78;;;17.48;100.00
56876;BME280;42622;49.972;8.452;2022-10-29T11:22:20;101173.22;;;17.53;100.00
56876;BME280;42622;49.972;8.452;2022-10-29T11:25:26;101173.25;;;17.62;100.00
56876;BME280;42622;49.972;8.452;2022-10-29T11:28:22;101174.44;;;17.69;100.00
56876;BME280;42622;49.972;8.452;2022-10-29T11:31:08;101170.81;;;17.71;100.00
56876;BME280;42622;49.972;8.452;2022-10-29T11:33:53;101160.94;;;17.71;100.00
56876;BME280;42622;49.972;8.452;2022-10-29T11:36:30;101166.03;;;17.74;100.00
56876;BME280;42622;49.972;8.452;2022-10-29T11:39:09;101163.25;;;17.76;100.00
56876;BME280;42622;49.972;8.452;2022-10-29T11:41:57;101151.69;;;17.75;100.00
56876;BME280;42622;49.972;8.452;2022-10-29T11:44:26;101153.97;;;17.80;100.00
56876;BME280;42622;49.972;8.452;2022-10-29T11:50:33;101156.38;;;17.83;100.00
56876;BME280;42622;49.972;8.452;2022-10-29T11:53:50;101145.25;;;17.78;100.00
56876;BME280;42622;49.972;8.452;2022-10-29T11:59:37;101138.97;;;17.67;100.00
56876;BME280;42622;49.972;8.452;2022-10-29T12:05:07;101133.81;;;17.55;100.00
56876;BME280;42622;49.972;8.452;2022-10-29T12:08:07;101128.16;;;17.48;100.00
56876;BME280;42622;49.972;8.452;2022-10-29T12:14:23;101134.56;;;17.36;100.00
56876;BME280;42622;49.972;8.452;2022-10-29T12:17:19;101131.41;;;17.31;100.00
56876;BME280;42622;49.972;8.452;2022-10-29T12:20:12;101133.38;;;17.29;100.00
56876;BME280;42622;49.972;8.452;2022-10-29T12:23:15;101127.56;;;17.24;100.00
56876;BME280;42622;49.972;8.452;2022-10-29T12:26:38;101113.38;;;17.23;100.00
56876;BME280;42622;49.972;8.452;2022-10-29T12:34:43;101110.44;;;17.26;100.00
56876;BME280;42622;49.972;8.452;2022-10-29T12:37:47;101112.25;;;17.26;100.00
56876;BME280;42622;49.972;8.452;2022-10-29T12:40:27;101102.56;;;17.25;100.00
56876;BME280;42622;49.972;8.452;2022-10-29T12:43:02;101110.28;;;17.28;100.00
56876;BME280;42622;49.972;8.452;2022-10-29T12:45:45;101091.88;;;17.25;100.00
56876;BME280;42622;49.972;8.452;2022-10-29T12:49:10;101093.56;;;17.26;100.00
56876;BME280;42622;49.972;8.452;2022-10-29T12:52:04;101085.03;;;17.32;100.00
56876;BME280;42622;49.972;8.452;2022-10-29T12:54:41;101091.53;;;17.39;100.00
56876;BME280;42622;49.972;8.452;2022-10-29T12:59:42;101087.09;;;17.49;100.00
56876;BME280;42622;49.972;8.452;2022-10-29T13:15:43;101080.00;;;18.00;99.41
56876;BME280;42622;49.972;8.452;2022-10-29T13:18:20;101073.97;;;18.07;98.63
56876;BME280;42622;49.972;8.452;2022-10-29T13:20:51;101064.25;;;18.06;98.33
56876;BME280;42622;49.972;8.452;2022-10-29T13:25:54;101075.25;;;18.03;97.49
56876;BME280;42622;49.972;8.452;2022-10-29T13:30:50;101070.41;;;17.97;97.48
56876;BME280;42622;49.972;8.452;2022-10-29T13:36:04;101065.59;;;17.91;97.16
56876;BME280;42622;49.972;8.452;2022-10-29T13:44:03;101060.25;;;17.91;96.01
56876;BME280;42622;49.972;8.452;2022-10-29T13:49:36;101056.88;;;17.89;95.83
56876;BME280;42622;49.972;8.452;2022-10-29T13:55:07;101047.19;;;17.88;95.95
56876;BME280;42622;49.972;8.452;2022-10-29T13:57:49;101042.78;;;17.87;95.59
56876;BME280;42622;49.972;8.452;2022-10-29T14:00:21;101037.44;;;17.87;95.20
56876;BME280;42622;49.972;8.452;2022-10-29T14:03:17;101047.03;;;17.89;94.96
56876;BME280;42622;49.972;8.452;2022-10-29T14:05:58;101053.78;;;17.94;94.83
56876;BME280;42622;49.972;8.452;2022-10-29T14:08:48;101044.50;;;17.98;94.36
56876;BME280;42622;49.972;8.452;2022-10-29T14:11:51;101045.81;;;18.03;94.26
56876;BME280;42622;49.972;8.452;2022-10-29T14:17:15;101028.75;;;18.04;93.98
56876;BME280;42622;49.972;8.452;2022-10-29T14:19:47;101032.44;;;18.03;93.87
56876;BME280;42622;49.972;8.452;2022-10-29T14:22:36;101042.69;;;17.98;93.64
56876;BME280;42622;49.972;8.452;2022-10-29T14:25:28;101043.09;;;17.94;94.03
56876;BME280;42622;49.972;8.452;2022-10-29T14:28:15;101038.28;;;17.87;93.73
56876;BME280;42622;49.972;8.452;2022-10-29T14:30:46;101052.91;;;17.83;93.99
56876;BME280;42622;49.972;8.452;2022-10-29T14:33:25;101049.81;;;17.78;94.16
56876;BME280;42622;49.972;8.452;2022-10-29T14:35:57;101041.31;;;17.73;94.11
56876;BME280;42622;49.972;8.452;2022-10-29T14:38:46;101046.34;;;17.66;94.01
56876;BME280;42622;49.972;8.452;2022-10-29T14:41:14;101042.97;;;17.64;94.13
56876;BME280;42622;49.972;8.452;2022-10-29T14:43:42;101041.56;;;17.60;94.06
56876;BME280;42622;49.972;8.452;2022-10-29T14:46:19;101035.75;;;17.55;93.91
56876;BME280;42622;49.972;8.452;2022-10-29T14:49:12;101035.31;;;17.50;94.53
56876;BME280;42622;49.972;8.452;2022-10-29T14:51:49;101036.84;;;17.43;94.41
56876;BME280;42622;49.972;8.452;2022-10-29T14:54:38;101034.53;;;17.38;94.75